sensor_id;sensor_type;location;lat;lon;timestamp;temperature;humidity
20831;DHT22;10576;53.556;9.868;2023-12-20T00:00:22;6.00;99.90
20831;DHT22;10576;53.556;9.868;2023-12-20T00:02:47;5.60;99.90
20831;DHT22;10576;53.556;9.868;2023-12-20T00:05:14;5.80;99.90
20831;DHT22;10576;53.556;9.868;2023-12-20T00:07:39;5.70;99.90
20831;DHT22;10576;53.556;9.868;2023-12-20T00:10:05;5.70;99.90
20831;DHT22;10576;53.556;9.868;2023-12-20T00:12:30;5.70;99.90
20831;DHT22;10576;53.556;9.868;2023-12-20T00:14:56;6.30;99.90
20831;DHT22;10576;53.556;9.868;2023-12-20T00:17:21;5.70;99.90
20831;DHT22;10576;53.556;9.868;2023-12-20T00:19:47;6.10;99.90
20831;DHT22;10576;53.556;9.868;2023-12-20T00:22:12;6.20;99.90
20831;DHT22;10576;53.556;9.868;2023-12-20T00:24:38;5.70;99.90
20831;DHT22;10576;53.556;9.868;2023-12-20T00:27:03;5.80;99.90
20831;DHT22;10576;53.556;9.868;2023-12-20T00:29:29;5.80;99.90
20831;DHT22;10576;53.556;9.868;2023-12-20T00:31:54;6.40;99.90
20831;DHT22;10576;53.556;9.868;2023-12-20T00:34:20;6.20;99.90
20831;DHT22;10576;53.556;9.868;2023-12-20T00:36:45;5.80;99.90
20831;DHT22;10576;53.556;9.868;2023-12-20T00:39:11;6.60;99.90
20831;DHT22;10576;53.556;9.868;2023-12-20T00:41:36;5.80;99.90
20831;DHT22;10576;53.556;9.868;2023-12-20T00:44:02;5.90;99.90
20831;DHT22;10576;53.556;9.868;2023-12-20T00:46:28;5.90;99.90
20831;DHT22;10576;53.556;9.868;2023-12-20T00:48:53;5.70;99.90
20831;DHT22;10576;53.556;9.868;2023-12-20T00:51:19;5.80;99.90
20831;DHT22;10576;53.556;9.868;2023-12-20T00:53:44;6.70;99.90
20831;DHT22;10576;53.556;9.868;2023-12-20T00:56:10;5.80;99.90
20831;DHT22;10576;53.556;9.868;2023-12-20T00:58:35;5.80;99.90
20831;DHT22;10576;53.556;9.868;2023-12-20T01:01:01;5.50;99.90
20831;DHT22;10576;53.556;9.868;2023-12-20T01:03:26;5.70;99.90
20831;DHT22;10576;53.556;9.868;2023-12-20T01:05:52;5.70;99.90
20831;DHT22;10576;53.556;9.868;2023-12-20T01:08:17;5.70;99.90
20831;DHT22;10576;53.556;9.868;2023-12-20T01:10:43;5.30;99.90
20831;DHT22;10576;53.556;9.868;2023-12-20T01:13:08;5.60;99.90
20831;DHT22;10576;53.556;9.868;2023-12-20T01:15:34;5.20;99.90
20831;DHT22;10576;53.556;9.868;2023-12-20T01:17:59;5.60;99.90
20831;DHT22;10576;53.556;9.868;2023-12-20T01:20:25;5.30;99.90
20831;DHT22;10576;53.556;9.868;2023-12-20T01:22:50;5.50;99.90
20831;DHT22;10576;53.556;9.868;2023-12-20T01:25:16;5.20;99.90
20831;DHT22;10576;53.556;9.868;2023-12-20T01:27:41;5.50;99.90
20831;DHT22;10576;53.556;9.868;2023-12-20T01:30:07;5.20;99.90
20831;DHT22;10576;53.556;9.868;2023-12-20T01:32:32;5.50;99.90
20831;DHT22;10576;53.556;9.868;2023-12-20T01:34:58;5.60;99.90
20831;DHT22;10576;53.556;9.868;2023-12-20T01:37:23;5.50;99.90
20831;DHT22;10576;53.556;9.868;2023-12-20T01:39:50;5.20;99.90
20831;DHT22;10576;53.556;9.868;2023-12-20T01:42:16;5.40;99.90
20831;DHT22;10576;53.556;9.868;2023-12-20T01:44:41;5.30;99.90
20831;DHT22;10576;53.556;9.868;2023-12-20T01:47:07;5.40;99.90
20831;DHT22;10576;53.556;9.868;2023-12-20T01:49:33;5.10;99.90
20831;DHT22;10576;53.556;9.868;2023-12-20T01:51:58;5.10;99.90
20831;DHT22;10576;53.556;9.868;2023-12-20T01:54:24;6.40;99.90
20831;DHT22;10576;53.556;9.868;2023-12-20T01:56:49;5.50;99.90
20831;DHT22;10576;53.556;9.868;2023-12-20T01:59:15;5.50;99.90
20831;DHT22;10576;53.556;9.868;2023-12-20T02:01:42;5.40;99.90
20831;DHT22;10576;53.556;9.868;2023-12-20T02:04:07;5.60;99.90
20831;DHT22;10576;53.556;9.868;2023-12-20T02:06:33;5.50;99.90
20831;DHT22;10576;53.556;9.868;2023-12-20T02:08:59;5.00;99.90
20831;DHT22;10576;53.556;9.868;2023-12-20T02:11:25;5.00;99.90
20831;DHT22;10576;53.556;9.868;2023-12-20T02:13:50;5.20;99.90
20831;DHT22;10576;53.556;9.868;2023-12-20T02:16:16;5.40;99.90
20831;DHT22;10576;53.556;9.868;2023-12-20T02:18:42;5.40;99.90
20831;DHT22;10576;53.556;9.868;2023-12-20T02:21:09;6.00;99.90
20831;DHT22;10576;53.556;9.868;2023-12-20T02:23:34;5.50;99.90
20831;DHT22;10576;53.556;9.868;2023-12-20T02:26:00;5.50;99.90
20831;DHT22;10576;53.556;9.868;2023-12-20T02:28:25;5.80;99.90
20831;DHT22;10576;53.556;9.868;2023-12-20T02:30:51;5.50;99.90
20831;DHT22;10576;53.556;9.868;2023-12-20T02:33:17;5.50;99.90
20831;DHT22;10576;53.556;9.868;2023-12-20T02:35:42;5.60;99.90
20831;DHT22;10576;53.556;9.868;2023-12-20T02:38:08;5.60;99.90
20831;DHT22;10576;53.556;9.868;2023-12-20T02:40:33;6.10;99.90
20831;DHT22;10576;53.556;9.868;2023-12-20T02:42:59;5.60;99.90
20831;DHT22;10576;53.556;9.868;2023-12-20T02:45:24;5.60;99.90
20831;DHT22;10576;53.556;9.868;2023-12-20T02:47:50;5.70;99.90
20831;DHT22;10576;53.556;9.868;2023-12-20T02:50:15;5.60;99.90
20831;DHT22;10576;53.556;9.868;2023-12-20T02:52:42;5.60;99.90
20831;DHT22;10576;53.556;9.868;2023-12-20T02:55:08;5.60;99.90
20831;DHT22;10576;53.556;9.868;2023-12-20T02:57:33;5.60;99.90
20831;DHT22;10576;53.556;9.868;2023-12-20T03:00:01;6.10;99.90
20831;DHT22;10576;53.556;9.868;2023-12-20T03:02:27;5.60;99.90
20831;DHT22;10576;53.556;9.868;2023-12-20T03:04:52;6.00;99.90
20831;DHT22;10576;53.556;9.868;2023-12-20T03:07:18;5.70;99.90
20831;DHT22;10576;53.556;9.868;2023-12-20T03:09:43;5.70;99.90
20831;DHT22;10576;53.556;9.868;2023-12-20T03:12:08;6.40;99.90
20831;DHT22;10576;53.556;9.868;2023-12-20T03:14:34;5.50;99.90
20831;DHT22;10576;53.556;9.868;2023-12-20T03:16:59;5.70;99.90
20831;DHT22;10576;53.556;9.868;2023-12-20T03:19:25;5.60;99.90
20831;DHT22;10576;53.556;9.868;2023-12-20T03:21:50;5.90;99.90
20831;DHT22;10576;53.556;9.868;2023-12-20T03:24:16;5.60;99.90
20831;DHT22;10576;53.556;9.868;2023-12-20T03:26:41;5.70;99.90
20831;DHT22;10576;53.556;9.868;2023-12-20T03:29:07;5.60;99.90
20831;DHT22;10576;53.556;9.868;2023-12-20T03:31:32;6.50;99.90
20831;DHT22;10576;53.556;9.868;2023-12-20T03:33:58;5.70;99.90
20831;DHT22;10576;53.556;9.868;2023-12-20T03:36:23;5.70;99.90
20831;DHT22;10576;53.556;9.868;2023-12-20T03:38:49;5.70;99.90
20831;DHT22;10576;53.556;9.868;2023-12-20T03:41:14;5.70;99.90
20831;DHT22;10576;53.556;9.868;2023-12-20T03:43:40;5.70;99.90
20831;DHT22;10576;53.556;9.868;2023-12-20T03:46:05;5.80;99.90
20831;DHT22;10576;53.556;9.868;2023-12-20T03:48:31;7.90;99.90
20831;DHT22;10576;53.556;9.868;2023-12-20T03:50:56;6.30;99.90
20831;DHT22;10576;53.556;9.868;2023-12-20T03:53:22;5.80;99.90
20831;DHT22;10576;53.556;9.868;2023-12-20T03:55:47;5.70;99.90
20831;DHT22;10576;53.556;9.868;2023-12-20T03:58:13;6.30;99.90
20831;DHT22;10576;53.556;9.868;2023-12-20T04:00:38;5.80;99.90
20831;DHT22;10576;53.556;9.868;2023-12-20T04:03:04;5.80;99.90
20831;DHT22;10576;53.556;9.868;2023-12-20T04:05:29;7.00;99.90
20831;DHT22;10576;53.556;9.868;2023-12-20T04:07:55;5.80;99.90
20831;DHT22;10576;53.556;9.868;2023-12-20T04:10:20;5.90;99.90
20831;DHT22;10576;53.556;9.868;2023-12-20T04:12:46;5.80;99.90
20831;DHT22;10576;53.556;9.868;2023-12-20T04:15:11;5.70;99.90
20831;DHT22;10576;53.556;9.868;2023-12-20T04:17:37;5.90;99.90
20831;DHT22;10576;53.556;9.868;2023-12-20T04:20:03;5.90;99.90
20831;DHT22;10576;53.556;9.868;2023-12-20T04:22:28;5.90;99.90
20831;DHT22;10576;53.556;9.868;2023-12-20T04:24:54;5.90;99.90
20831;DHT22;10576;53.556;9.868;2023-12-20T04:27:19;5.90;99.90
20831;DHT22;10576;53.556;9.868;2023-12-20T04:29:45;5.90;99.90
20831;DHT22;10576;53.556;9.868;2023-12-20T04:32:10;5.90;99.90
20831;DHT22;10576;53.556;9.868;2023-12-20T04:34:36;5.80;99.90
20831;DHT22;10576;53.556;9.868;2023-12-20T04:37:01;5.90;99.90
20831;DHT22;10576;53.556;9.868;2023-12-20T04:39:27;5.90;99.90
20831;DHT22;10576;53.556;9.868;2023-12-20T04:41:52;5.90;99.90
20831;DHT22;10576;53.556;9.868;2023-12-20T04:44:18;5.90;99.90
20831;DHT22;10576;53.556;9.868;2023-12-20T04:46:44;5.90;99.90
20831;DHT22;10576;53.556;9.868;2023-12-20T04:49:09;5.90;99.90
20831;DHT22;10576;53.556;9.868;2023-12-20T04:51:35;6.00;99.90
20831;DHT22;10576;53.556;9.868;2023-12-20T04:54:01;6.10;99.90
20831;DHT22;10576;53.556;9.868;2023-12-20T04:56:26;6.00;99.90
20831;DHT22;10576;53.556;9.868;2023-12-20T04:58:52;6.30;99.90
20831;DHT22;10576;53.556;9.868;2023-12-20T05:01:17;6.00;99.90
20831;DHT22;10576;53.556;9.868;2023-12-20T05:03:43;6.00;99.90
20831;DHT22;10576;53.556;9.868;2023-12-20T05:06:09;6.10;99.90
20831;DHT22;10576;53.556;9.868;2023-12-20T05:08:34;5.60;99.90
20831;DHT22;10576;53.556;9.868;2023-12-20T05:11:00;5.90;99.90
20831;DHT22;10576;53.556;9.868;2023-12-20T05:13:25;5.60;99.90
20831;DHT22;10576;53.556;9.868;2023-12-20T05:15:51;6.10;99.90
20831;DHT22;10576;53.556;9.868;2023-12-20T05:18:16;6.10;99.90
20831;DHT22;10576;53.556;9.868;2023-12-20T05:20:42;5.80;99.90
20831;DHT22;10576;53.556;9.868;2023-12-20T05:23:07;6.00;99.90
20831;DHT22;10576;53.556;9.868;2023-12-20T05:25:33;6.00;99.90
20831;DHT22;10576;53.556;9.868;2023-12-20T05:27:58;6.20;99.90
20831;DHT22;10576;53.556;9.868;2023-12-20T05:30:24;6.00;99.90
20831;DHT22;10576;53.556;9.868;2023-12-20T05:32:49;7.40;99.90
20831;DHT22;10576;53.556;9.868;2023-12-20T05:35:15;6.20;99.90
20831;DHT22;10576;53.556;9.868;2023-12-20T05:37:41;6.20;99.90
20831;DHT22;10576;53.556;9.868;2023-12-20T05:40:06;6.00;99.90
20831;DHT22;10576;53.556;9.868;2023-12-20T05:42:35;6.20;99.90
20831;DHT22;10576;53.556;9.868;2023-12-20T05:45:01;5.90;99.90
20831;DHT22;10576;53.556;9.868;2023-12-20T05:47:26;6.20;99.90
20831;DHT22;10576;53.556;9.868;2023-12-20T05:49:52;6.20;99.90
20831;DHT22;10576;53.556;9.868;2023-12-20T05:52:18;6.00;99.90
20831;DHT22;10576;53.556;9.868;2023-12-20T05:54:43;6.20;99.90
20831;DHT22;10576;53.556;9.868;2023-12-20T05:57:09;6.20;99.90
20831;DHT22;10576;53.556;9.868;2023-12-20T05:59:34;5.80;99.90
20831;DHT22;10576;53.556;9.868;2023-12-20T06:01:59;5.80;99.90
20831;DHT22;10576;53.556;9.868;2023-12-20T06:04:25;6.20;99.90
20831;DHT22;10576;53.556;9.868;2023-12-20T06:06:50;6.20;99.90
20831;DHT22;10576;53.556;9.868;2023-12-20T06:09:16;6.50;99.90
20831;DHT22;10576;53.556;9.868;2023-12-20T06:11:41;5.80;99.90
20831;DHT22;10576;53.556;9.868;2023-12-20T06:14:07;5.70;99.90
20831;DHT22;10576;53.556;9.868;2023-12-20T06:16:32;6.20;99.90
20831;DHT22;10576;53.556;9.868;2023-12-20T06:18:58;6.10;99.90
20831;DHT22;10576;53.556;9.868;2023-12-20T06:21:23;6.60;99.90
20831;DHT22;10576;53.556;9.868;2023-12-20T06:23:49;6.00;99.90
20831;DHT22;10576;53.556;9.868;2023-12-20T06:26:15;6.20;99.90
20831;DHT22;10576;53.556;9.868;2023-12-20T06:28:40;6.20;99.90
20831;DHT22;10576;53.556;9.868;2023-12-20T06:31:05;6.60;99.90
20831;DHT22;10576;53.556;9.868;2023-12-20T06:33:31;5.70;99.90
20831;DHT22;10576;53.556;9.868;2023-12-20T06:35:57;5.80;99.90
20831;DHT22;10576;53.556;9.868;2023-12-20T06:38:22;6.20;99.90
20831;DHT22;10576;53.556;9.868;2023-12-20T06:40:48;5.90;99.90
20831;DHT22;10576;53.556;9.868;2023-12-20T06:43:13;6.50;99.90
20831;DHT22;10576;53.556;9.868;2023-12-20T06:45:39;5.90;99.90
20831;DHT22;10576;53.556;9.868;2023-12-20T06:48:04;6.30;99.90
20831;DHT22;10576;53.556;9.868;2023-12-20T06:50:30;6.30;99.90
20831;DHT22;10576;53.556;9.868;2023-12-20T06:52:55;7.20;99.90
20831;DHT22;10576;53.556;9.868;2023-12-20T06:55:21;6.90;99.90
20831;DHT22;10576;53.556;9.868;2023-12-20T06:57:46;6.30;99.90
20831;DHT22;10576;53.556;9.868;2023-12-20T07:00:12;5.90;99.90
20831;DHT22;10576;53.556;9.868;2023-12-20T07:02:38;6.30;99.90
20831;DHT22;10576;53.556;9.868;2023-12-20T07:05:03;6.40;99.90
20831;DHT22;10576;53.556;9.868;2023-12-20T07:07:29;6.30;99.90
20831;DHT22;10576;53.556;9.868;2023-12-20T07:09:55;6.10;99.90
20831;DHT22;10576;53.556;9.868;2023-12-20T07:12:20;6.20;99.90
20831;DHT22;10576;53.556;9.868;2023-12-20T07:14:46;6.10;99.90
20831;DHT22;10576;53.556;9.868;2023-12-20T07:17:11;6.30;99.90
20831;DHT22;10576;53.556;9.868;2023-12-20T07:19:39;6.30;99.90
20831;DHT22;10576;53.556;9.868;2023-12-20T07:22:05;7.20;99.90
20831;DHT22;10576;53.556;9.868;2023-12-20T07:24:30;6.40;99.90
20831;DHT22;10576;53.556;9.868;2023-12-20T07:26:56;6.40;99.90
20831;DHT22;10576;53.556;9.868;2023-12-20T07:29:22;7.50;99.90
20831;DHT22;10576;53.556;9.868;2023-12-20T07:31:47;6.70;99.90
20831;DHT22;10576;53.556;9.868;2023-12-20T07:34:13;6.90;99.90
20831;DHT22;10576;53.556;9.868;2023-12-20T07:36:38;6.50;99.90
20831;DHT22;10576;53.556;9.868;2023-12-20T07:39:04;6.30;99.90
20831;DHT22;10576;53.556;9.868;2023-12-20T07:41:29;6.50;99.90
20831;DHT22;10576;53.556;9.868;2023-12-20T07:43:55;7.30;99.90
20831;DHT22;10576;53.556;9.868;2023-12-20T07:46:21;6.50;99.90
20831;DHT22;10576;53.556;9.868;2023-12-20T07:48:48;6.50;99.90
20831;DHT22;10576;53.556;9.868;2023-12-20T07:51:14;7.20;99.90
20831;DHT22;10576;53.556;9.868;2023-12-20T07:53:39;6.50;99.90
20831;DHT22;10576;53.556;9.868;2023-12-20T07:56:14;6.50;99.90
20831;DHT22;10576;53.556;9.868;2023-12-20T07:58:40;6.60;99.90
20831;DHT22;10576;53.556;9.868;2023-12-20T08:01:06;6.60;99.90
20831;DHT22;10576;53.556;9.868;2023-12-20T08:03:32;7.00;99.90
20831;DHT22;10576;53.556;9.868;2023-12-20T08:05:57;6.60;99.90
20831;DHT22;10576;53.556;9.868;2023-12-20T08:08:24;6.60;99.90
20831;DHT22;10576;53.556;9.868;2023-12-20T08:10:50;6.70;99.90
20831;DHT22;10576;53.556;9.868;2023-12-20T08:13:15;6.70;99.90
20831;DHT22;10576;53.556;9.868;2023-12-20T08:15:41;6.80;99.90
20831;DHT22;10576;53.556;9.868;2023-12-20T08:18:06;6.80;99.90
20831;DHT22;10576;53.556;9.868;2023-12-20T08:20:32;6.80;99.90
20831;DHT22;10576;53.556;9.868;2023-12-20T08:22:57;6.80;99.90
20831;DHT22;10576;53.556;9.868;2023-12-20T08:25:23;6.40;99.90
20831;DHT22;10576;53.556;9.868;2023-12-20T08:27:48;6.80;99.90
20831;DHT22;10576;53.556;9.868;2023-12-20T08:30:14;6.40;99.90
20831;DHT22;10576;53.556;9.868;2023-12-20T08:32:39;6.50;99.90
20831;DHT22;10576;53.556;9.868;2023-12-20T08:35:05;6.90;99.90
20831;DHT22;10576;53.556;9.868;2023-12-20T08:37:31;6.90;99.90
20831;DHT22;10576;53.556;9.868;2023-12-20T08:39:56;6.90;99.90
20831;DHT22;10576;53.556;9.868;2023-12-20T08:42:22;7.40;99.90
20831;DHT22;10576;53.556;9.868;2023-12-20T08:44:49;6.90;99.90
20831;DHT22;10576;53.556;9.868;2023-12-20T08:47:15;7.00;99.90
20831;DHT22;10576;53.556;9.868;2023-12-20T08:49:41;7.10;99.90
20831;DHT22;10576;53.556;9.868;2023-12-20T08:52:06;6.80;99.90
20831;DHT22;10576;53.556;9.868;2023-12-20T08:54:32;7.00;99.90
20831;DHT22;10576;53.556;9.868;2023-12-20T08:56:57;7.00;99.90
20831;DHT22;10576;53.556;9.868;2023-12-20T08:59:23;6.80;99.90
20831;DHT22;10576;53.556;9.868;2023-12-20T09:01:48;6.60;99.90
20831;DHT22;10576;53.556;9.868;2023-12-20T09:04:19;7.50;99.90
20831;DHT22;10576;53.556;9.868;2023-12-20T09:06:45;6.80;99.90
20831;DHT22;10576;53.556;9.868;2023-12-20T09:09:10;7.30;99.90
20831;DHT22;10576;53.556;9.868;2023-12-20T09:11:39;6.70;99.90
20831;DHT22;10576;53.556;9.868;2023-12-20T09:14:04;6.40;99.90
20831;DHT22;10576;53.556;9.868;2023-12-20T09:16:29;6.70;99.90
20831;DHT22;10576;53.556;9.868;2023-12-20T09:18:56;6.50;99.90
20831;DHT22;10576;53.556;9.868;2023-12-20T09:21:22;6.70;99.90
20831;DHT22;10576;53.556;9.868;2023-12-20T09:23:47;6.60;99.90
20831;DHT22;10576;53.556;9.868;2023-12-20T09:26:13;6.50;99.90
20831;DHT22;10576;53.556;9.868;2023-12-20T09:28:39;7.10;99.90
20831;DHT22;10576;53.556;9.868;2023-12-20T09:31:05;6.10;99.90
20831;DHT22;10576;53.556;9.868;2023-12-20T09:33:34;6.40;99.90
20831;DHT22;10576;53.556;9.868;2023-12-20T09:36:00;6.40;99.90
20831;DHT22;10576;53.556;9.868;2023-12-20T09:38:26;6.30;99.90
20831;DHT22;10576;53.556;9.868;2023-12-20T09:40:51;6.10;99.90
20831;DHT22;10576;53.556;9.868;2023-12-20T09:43:19;6.70;99.90
20831;DHT22;10576;53.556;9.868;2023-12-20T09:45:46;6.20;99.90
20831;DHT22;10576;53.556;9.868;2023-12-20T09:48:11;6.40;99.90
20831;DHT22;10576;53.556;9.868;2023-12-20T09:50:40;6.10;99.90
20831;DHT22;10576;53.556;9.868;2023-12-20T09:53:05;6.40;99.90
20831;DHT22;10576;53.556;9.868;2023-12-20T09:55:34;6.20;99.90
20831;DHT22;10576;53.556;9.868;2023-12-20T09:58:01;6.30;99.90
20831;DHT22;10576;53.556;9.868;2023-12-20T10:00:26;6.10;99.90
20831;DHT22;10576;53.556;9.868;2023-12-20T10:05:17;6.30;99.90
20831;DHT22;10576;53.556;9.868;2023-12-20T10:07:46;6.00;99.90
20831;DHT22;10576;53.556;9.868;2023-12-20T10:10:12;5.80;99.90
20831;DHT22;10576;53.556;9.868;2023-12-20T10:12:38;5.90;99.90
20831;DHT22;10576;53.556;9.868;2023-12-20T10:15:04;5.90;99.90
20831;DHT22;10576;53.556;9.868;2023-12-20T10:17:29;5.90;99.90
20831;DHT22;10576;53.556;9.868;2023-12-20T10:19:55;5.90;99.90
20831;DHT22;10576;53.556;9.868;2023-12-20T10:22:21;5.80;99.90
20831;DHT22;10576;53.556;9.868;2023-12-20T10:24:46;6.40;99.90
20831;DHT22;10576;53.556;9.868;2023-12-20T10:27:12;5.90;99.90
20831;DHT22;10576;53.556;9.868;2023-12-20T10:29:38;5.40;99.90
20831;DHT22;10576;53.556;9.868;2023-12-20T10:32:22;5.90;99.90
20831;DHT22;10576;53.556;9.868;2023-12-20T10:34:51;5.90;99.90
20831;DHT22;10576;53.556;9.868;2023-12-20T10:37:17;5.90;99.90
20831;DHT22;10576;53.556;9.868;2023-12-20T10:39:42;5.90;99.90
20831;DHT22;10576;53.556;9.868;2023-12-20T10:42:09;5.90;99.90
20831;DHT22;10576;53.556;9.868;2023-12-20T10:44:35;5.70;99.90
20831;DHT22;10576;53.556;9.868;2023-12-20T10:47:00;5.90;99.90
20831;DHT22;10576;53.556;9.868;2023-12-20T10:49:26;5.60;99.90
20831;DHT22;10576;53.556;9.868;2023-12-20T10:51:52;6.00;99.90
20831;DHT22;10576;53.556;9.868;2023-12-20T10:54:19;7.00;99.90
20831;DHT22;10576;53.556;9.868;2023-12-20T10:56:45;5.70;99.90
20831;DHT22;10576;53.556;9.868;2023-12-20T10:59:11;6.00;99.90
20831;DHT22;10576;53.556;9.868;2023-12-20T11:01:37;6.00;99.90
20831;DHT22;10576;53.556;9.868;2023-12-20T11:04:03;6.00;99.90
20831;DHT22;10576;53.556;9.868;2023-12-20T11:06:45;6.10;99.90
20831;DHT22;10576;53.556;9.868;2023-12-20T11:14:20;6.00;99.90
20831;DHT22;10576;53.556;9.868;2023-12-20T11:16:47;6.00;99.90
20831;DHT22;10576;53.556;9.868;2023-12-20T11:19:13;6.00;99.90
20831;DHT22;10576;53.556;9.868;2023-12-20T11:21:39;5.60;99.90
20831;DHT22;10576;53.556;9.868;2023-12-20T11:24:05;5.60;99.90
20831;DHT22;10576;53.556;9.868;2023-12-20T11:26:30;6.20;99.90
20831;DHT22;10576;53.556;9.868;2023-12-20T11:31:40;6.20;99.90
20831;DHT22;10576;53.556;9.868;2023-12-20T11:34:12;6.50;99.90
20831;DHT22;10576;53.556;9.868;2023-12-20T11:36:38;6.30;99.90
20831;DHT22;10576;53.556;9.868;2023-12-20T11:39:04;6.30;99.90
20831;DHT22;10576;53.556;9.868;2023-12-20T11:41:34;6.10;99.90
20831;DHT22;10576;53.556;9.868;2023-12-20T11:43:59;6.40;99.90
20831;DHT22;10576;53.556;9.868;2023-12-20T11:46:26;6.20;99.90
20831;DHT22;10576;53.556;9.868;2023-12-20T11:48:51;6.20;99.90
20831;DHT22;10576;53.556;9.868;2023-12-20T11:51:17;6.20;99.90
20831;DHT22;10576;53.556;9.868;2023-12-20T11:53:42;6.20;99.90
20831;DHT22;10576;53.556;9.868;2023-12-20T11:56:08;6.30;99.90
20831;DHT22;10576;53.556;9.868;2023-12-20T11:58:34;7.20;99.90
20831;DHT22;10576;53.556;9.868;2023-12-20T12:00:59;6.30;99.90
20831;DHT22;10576;53.556;9.868;2023-12-20T12:03:25;6.60;99.90
20831;DHT22;10576;53.556;9.868;2023-12-20T12:05:51;6.40;99.90
20831;DHT22;10576;53.556;9.868;2023-12-20T12:08:16;6.40;99.90
20831;DHT22;10576;53.556;9.868;2023-12-20T12:10:42;7.00;99.90
20831;DHT22;10576;53.556;9.868;2023-12-20T12:13:08;6.50;99.90
20831;DHT22;10576;53.556;9.868;2023-12-20T12:15:33;5.70;99.90
20831;DHT22;10576;53.556;9.868;2023-12-20T12:17:59;6.40;99.90
20831;DHT22;10576;53.556;9.868;2023-12-20T12:20:24;6.00;99.90
20831;DHT22;10576;53.556;9.868;2023-12-20T12:22:59;6.70;99.90
20831;DHT22;10576;53.556;9.868;2023-12-20T12:25:25;6.40;99.90
20831;DHT22;10576;53.556;9.868;2023-12-20T12:27:51;6.30;99.90
20831;DHT22;10576;53.556;9.868;2023-12-20T12:30:16;6.30;99.90
20831;DHT22;10576;53.556;9.868;2023-12-20T12:32:44;6.30;99.90
20831;DHT22;10576;53.556;9.868;2023-12-20T12:35:09;6.30;99.90
20831;DHT22;10576;53.556;9.868;2023-12-20T12:37:36;6.40;99.90
20831;DHT22;10576;53.556;9.868;2023-12-20T12:40:04;6.30;99.90
20831;DHT22;10576;53.556;9.868;2023-12-20T12:42:30;6.40;99.90
20831;DHT22;10576;53.556;9.868;2023-12-20T12:44:56;6.40;99.90
20831;DHT22;10576;53.556;9.868;2023-12-20T12:47:24;6.40;99.90
20831;DHT22;10576;53.556;9.868;2023-12-20T12:49:50;6.30;99.90
20831;DHT22;10576;53.556;9.868;2023-12-20T12:52:16;6.60;99.90
20831;DHT22;10576;53.556;9.868;2023-12-20T12:54:42;6.50;99.90
20831;DHT22;10576;53.556;9.868;2023-12-20T12:57:07;6.50;99.90
20831;DHT22;10576;53.556;9.868;2023-12-20T12:59:33;6.50;99.90
20831;DHT22;10576;53.556;9.868;2023-12-20T13:01:58;6.50;99.90
20831;DHT22;10576;53.556;9.868;2023-12-20T13:04:24;7.00;99.90
20831;DHT22;10576;53.556;9.868;2023-12-20T13:06:49;6.40;99.90
20831;DHT22;10576;53.556;9.868;2023-12-20T13:09:15;6.30;99.90
20831;DHT22;10576;53.556;9.868;2023-12-20T13:11:40;6.40;99.90
20831;DHT22;10576;53.556;9.868;2023-12-20T13:14:06;6.50;99.90
20831;DHT22;10576;53.556;9.868;2023-12-20T13:16:35;6.30;99.90
20831;DHT22;10576;53.556;9.868;2023-12-20T13:19:01;6.20;99.90
20831;DHT22;10576;53.556;9.868;2023-12-20T13:21:26;6.20;99.90
20831;DHT22;10576;53.556;9.868;2023-12-20T13:23:52;6.20;99.90
20831;DHT22;10576;53.556;9.868;2023-12-20T13:26:19;6.20;99.90
20831;DHT22;10576;53.556;9.868;2023-12-20T13:28:44;6.60;99.90
20831;DHT22;10576;53.556;9.868;2023-12-20T13:31:10;5.60;99.90
20831;DHT22;10576;53.556;9.868;2023-12-20T13:33:35;5.60;99.90
20831;DHT22;10576;53.556;9.868;2023-12-20T13:36:01;6.40;99.90
20831;DHT22;10576;53.556;9.868;2023-12-20T13:38:26;6.10;99.90
20831;DHT22;10576;53.556;9.868;2023-12-20T13:40:52;6.10;99.90
20831;DHT22;10576;53.556;9.868;2023-12-20T13:43:17;6.60;99.90
20831;DHT22;10576;53.556;9.868;2023-12-20T13:45:46;6.10;99.90
20831;DHT22;10576;53.556;9.868;2023-12-20T13:48:12;6.00;99.90
20831;DHT22;10576;53.556;9.868;2023-12-20T13:50:37;6.10;99.90
20831;DHT22;10576;53.556;9.868;2023-12-20T13:53:03;5.90;99.90
20831;DHT22;10576;53.556;9.868;2023-12-20T13:55:29;6.10;99.90
20831;DHT22;10576;53.556;9.868;2023-12-20T13:57:56;6.20;99.90
20831;DHT22;10576;53.556;9.868;2023-12-20T14:00:22;6.10;99.90
20831;DHT22;10576;53.556;9.868;2023-12-20T14:02:47;6.30;99.90
20831;DHT22;10576;53.556;9.868;2023-12-20T14:05:14;6.20;99.90
20831;DHT22;10576;53.556;9.868;2023-12-20T14:07:43;6.30;99.90
20831;DHT22;10576;53.556;9.868;2023-12-20T14:10:11;6.00;99.90
20831;DHT22;10576;53.556;9.868;2023-12-20T14:12:36;6.00;99.90
20831;DHT22;10576;53.556;9.868;2023-12-20T14:15:03;5.80;99.90
20831;DHT22;10576;53.556;9.868;2023-12-20T14:17:29;6.40;99.90
20831;DHT22;10576;53.556;9.868;2023-12-20T14:19:54;6.80;99.90
20831;DHT22;10576;53.556;9.868;2023-12-20T14:22:20;6.40;99.90
20831;DHT22;10576;53.556;9.868;2023-12-20T14:24:45;6.40;99.90
20831;DHT22;10576;53.556;9.868;2023-12-20T14:27:11;6.40;99.90
20831;DHT22;10576;53.556;9.868;2023-12-20T14:29:37;6.40;99.90
20831;DHT22;10576;53.556;9.868;2023-12-20T14:32:03;6.10;99.90
20831;DHT22;10576;53.556;9.868;2023-12-20T14:34:29;6.40;99.90
20831;DHT22;10576;53.556;9.868;2023-12-20T14:36:54;6.40;99.90
20831;DHT22;10576;53.556;9.868;2023-12-20T14:39:20;6.40;99.90
20831;DHT22;10576;53.556;9.868;2023-12-20T14:41:46;6.00;99.90
20831;DHT22;10576;53.556;9.868;2023-12-20T14:44:11;6.30;99.90
20831;DHT22;10576;53.556;9.868;2023-12-20T14:46:37;6.20;99.90
20831;DHT22;10576;53.556;9.868;2023-12-20T14:49:03;7.40;99.90
20831;DHT22;10576;53.556;9.868;2023-12-20T14:51:29;6.20;99.90
20831;DHT22;10576;53.556;9.868;2023-12-20T14:53:55;6.60;99.90
20831;DHT22;10576;53.556;9.868;2023-12-20T14:56:22;6.10;99.90
20831;DHT22;10576;53.556;9.868;2023-12-20T14:58:48;6.10;99.90
20831;DHT22;10576;53.556;9.868;2023-12-20T15:01:13;5.90;99.90
20831;DHT22;10576;53.556;9.868;2023-12-20T15:03:39;5.90;99.90
20831;DHT22;10576;53.556;9.868;2023-12-20T15:06:05;6.00;99.90
20831;DHT22;10576;53.556;9.868;2023-12-20T15:08:31;5.90;99.90
20831;DHT22;10576;53.556;9.868;2023-12-20T15:10:57;5.70;99.90
20831;DHT22;10576;53.556;9.868;2023-12-20T15:13:22;6.00;99.90
20831;DHT22;10576;53.556;9.868;2023-12-20T15:15:48;5.90;99.90
20831;DHT22;10576;53.556;9.868;2023-12-20T15:18:13;5.90;99.90
20831;DHT22;10576;53.556;9.868;2023-12-20T15:20:39;5.70;99.90
20831;DHT22;10576;53.556;9.868;2023-12-20T15:23:04;6.00;99.90
20831;DHT22;10576;53.556;9.868;2023-12-20T15:25:32;5.90;99.90
20831;DHT22;10576;53.556;9.868;2023-12-20T15:27:57;5.90;99.90
20831;DHT22;10576;53.556;9.868;2023-12-20T15:30:23;5.90;99.90
20831;DHT22;10576;53.556;9.868;2023-12-20T15:32:49;6.40;99.90
20831;DHT22;10576;53.556;9.868;2023-12-20T15:35:15;5.30;99.90
20831;DHT22;10576;53.556;9.868;2023-12-20T15:37:40;5.70;99.90
20831;DHT22;10576;53.556;9.868;2023-12-20T15:40:09;5.80;99.90
20831;DHT22;10576;53.556;9.868;2023-12-20T15:42:38;5.70;99.90
20831;DHT22;10576;53.556;9.868;2023-12-20T15:45:04;5.70;99.90